Time;durP1;ratioP1;P1;durP2;ratioP2;P2;SDS_P1;SDS_P2;PMS_P1;PMS_P2;Temp;Humidity;BMP_temperature;BMP_pressure;BME280_temperature;BME280_humidity;BME280_pressure;Samples;Min_cycle;Max_cycle;Signal;HPM_P1;HPM_P2
2023/01/21 00:00:37;;;;;;;23.50;12.55;;;16.40;61.30;;;;;;5061806;28;20585;-12
2023/01/21 00:03:03;;;;;;;19.90;12.57;;;16.40;61.30;;;;;;5063679;28;20106;-20
2023/01/21 00:05:28;;;;;;;22.42;12.57;;;16.30;62.10;;;;;;5063188;28;20499;-15
2023/01/21 00:07:54;;;;;;;18.92;11.95;;;16.30;61.30;;;;;;5063175;28;20079;-25
2023/01/21 00:10:19;;;;;;;17.80;11.55;;;16.30;62.20;;;;;;5063409;28;20045;-38
2023/01/21 00:12:45;;;;;;;19.42;12.07;;;16.30;61.30;;;;;;5064269;28;20434;-25
2023/01/21 00:15:11;;;;;;;19.58;12.10;;;16.30;62.20;;;;;;5063356;28;20051;-24
2023/01/21 00:17:36;;;;;;;18.73;10.93;;;16.30;61.60;;;;;;5061376;28;20384;-12
2023/01/21 00:20:02;;;;;;;19.25;11.90;;;16.30;61.50;;;;;;5061147;28;20097;-26
2023/01/21 00:22:28;;;;;;;18.70;10.52;;;16.30;61.40;;;;;;5062106;28;20044;-13
2023/01/21 00:24:54;;;;;;;16.88;11.45;;;16.30;61.40;;;;;;5062344;28;20411;-35
2023/01/21 00:27:19;;;;;;;18.02;11.30;;;16.30;61.30;;;;;;5062963;28;20461;-18
2023/01/21 00:29:45;;;;;;;18.05;11.32;;;16.30;61.40;;;;;;5061310;28;20047;-12
2023/01/21 00:32:10;;;;;;;19.25;11.10;;;16.30;61.40;;;;;;5060818;28;20122;-12
2023/01/21 00:34:36;;;;;;;20.15;11.32;;;16.30;61.50;;;;;;5060624;28;20049;-23
2023/01/21 00:37:01;;;;;;;18.00;10.10;;;16.30;61.50;;;;;;5062317;28;20052;-12
2023/01/21 00:39:27;;;;;;;16.48;10.52;;;16.30;61.50;;;;;;5059955;28;20053;-12
2023/01/21 00:41:53;;;;;;;16.73;10.15;;;16.30;61.50;;;;;;5063782;28;20276;-30
2023/01/21 00:44:19;;;;;;;16.95;10.65;;;16.30;61.30;;;;;;5062346;28;20077;-12
2023/01/21 00:46:44;;;;;;;16.50;10.70;;;16.30;61.40;;;;;;5061957;28;20515;-12
2023/01/21 00:49:10;;;;;;;14.05;9.68;;;16.30;61.50;;;;;;5061310;28;20079;-21
2023/01/21 00:51:35;;;;;;;14.60;10.15;;;16.30;61.30;;;;;;5060541;28;20049;-13
2023/01/21 00:54:01;;;;;;;18.77;10.60;;;16.30;61.30;;;;;;5063130;28;20101;-18
2023/01/21 00:56:26;;;;;;;15.18;9.40;;;16.40;61.20;;;;;;5060756;28;20483;-12
2023/01/21 00:58:52;;;;;;;14.52;9.98;;;16.30;61.30;;;;;;5057930;28;20048;-21
2023/01/21 01:01:19;;;;;;;12.25;8.77;;;16.20;61.40;;;;;;5062426;28;20040;-24
2023/01/21 01:03:45;;;;;;;14.55;9.52;;;16.20;61.40;;;;;;5061472;28;20236;-16
2023/01/21 01:06:11;;;;;;;14.40;10.10;;;16.30;61.40;;;;;;5060508;28;20052;-16
2023/01/21 01:08:37;;;;;;;14.50;9.60;;;16.30;62.10;;;;;;5061416;28;20491;-29
2023/01/21 01:11:03;;;;;;;15.55;10.40;;;16.30;61.30;;;;;;5062835;28;20047;-12
2023/01/21 01:13:28;;;;;;;13.13;9.52;;;16.30;61.30;;;;;;5063129;28;20058;-20
2023/01/21 01:15:56;;;;;;;16.38;9.95;;;16.30;61.10;;;;;;5062656;28;20052;-18
2023/01/21 01:18:22;;;;;;;13.27;10.10;;;16.30;61.20;;;;;;5062361;28;20067;-18
2023/01/21 01:20:48;;;;;;;15.02;9.38;;;16.30;61.00;;;;;;5063033;28;20054;-12
2023/01/21 01:23:13;;;;;;;14.88;9.43;;;16.30;60.90;;;;;;5055869;28;20580;-19
2023/01/21 01:25:39;;;;;;;13.32;8.90;;;16.20;61.20;;;;;;5052555;28;20139;-16
2023/01/21 01:28:05;;;;;;;13.07;8.35;;;16.30;60.90;;;;;;5061423;28;20702;-27
2023/01/21 01:30:30;;;;;;;12.05;8.73;;;16.30;61.00;;;;;;5059646;28;20133;-19
2023/01/21 01:32:56;;;;;;;15.27;9.10;;;16.20;61.30;;;;;;5063171;28;20166;-12
2023/01/21 01:35:22;;;;;;;12.10;8.63;;;16.20;61.40;;;;;;5063696;28;20042;-12
2023/01/21 01:37:47;;;;;;;12.75;8.43;;;16.20;61.30;;;;;;5059247;28;20613;-12
2023/01/21 01:40:13;;;;;;;13.15;8.35;;;16.20;61.30;;;;;;5063137;28;20037;-22
2023/01/21 01:42:39;;;;;;;12.65;8.32;;;16.20;61.30;;;;;;5067807;28;20036;-12
2023/01/21 01:45:15;;;;;;;16.08;7.95;;;16.20;61.40;;;;;;5066595;28;20565;-22
2023/01/21 01:47:43;;;;;;;10.77;7.68;;;16.10;61.50;;;;;;5061706;28;20557;-26
2023/01/21 01:50:10;;;;;;;9.57;7.43;;;16.10;61.30;;;;;;5074339;28;20058;-16
2023/01/21 01:52:36;;;;;;;12.35;7.78;;;16.10;61.40;;;;;;5072745;28;20511;-35
2023/01/21 01:55:02;;;;;;;11.48;8.25;;;16.10;62.20;;;;;;5074592;28;20110;-27
2023/01/21 01:57:36;;;;;;;11.43;7.70;;;16.00;61.40;;;;;;5075731;28;20048;-19
2023/01/21 02:00:04;;;;;;;11.05;8.10;;;16.00;61.50;;;;;;5075935;28;20875;-11
2023/01/21 02:02:30;;;;;;;10.02;7.78;;;16.00;61.50;;;;;;5073602;28;20039;-24
2023/01/21 02:04:57;;;;;;;11.45;7.72;;;16.10;61.50;;;;;;5081822;28;20470;-31
2023/01/21 02:07:23;;;;;;;11.57;7.28;;;16.10;61.30;;;;;;5062898;28;20054;-36
2023/01/21 02:09:49;;;;;;;9.93;7.65;;;16.10;61.30;;;;;;5055820;28;20040;-35
2023/01/21 02:12:14;;;;;;;10.27;6.78;;;16.00;61.30;;;;;;5074499;28;20530;-29
2023/01/21 02:14:42;;;;;;;11.25;7.90;;;16.00;62.10;;;;;;5063675;28;20041;-19
2023/01/21 02:17:37;;;;;;;10.85;8.00;;;16.00;61.30;;;;;;5066959;28;20040;-19
2023/01/21 02:20:36;;;;;;;8.30;7.05;;;16.00;61.40;;;;;;5070629;28;20028;-25
2023/01/21 02:23:07;;;;;;;7.95;6.28;;;16.10;61.20;;;;;;5066077;28;20143;-22
2023/01/21 02:26:06;;;;;;;8.27;6.72;;;16.00;61.20;;;;;;5065093;28;20040;-32
2023/01/21 02:28:59;;;;;;;9.13;7.40;;;16.00;61.30;;;;;;5060617;28;20110;-18
2023/01/21 02:31:33;;;;;;;9.90;6.78;;;15.90;61.50;;;;;;5066709;28;20521;-24
2023/01/21 02:34:17;;;;;;;8.68;7.38;;;15.90;61.50;;;;;;5065774;28;20052;-18
2023/01/21 02:36:59;;;;;;;7.72;6.43;;;15.90;61.50;;;;;;5064104;28;20051;-24
2023/01/21 02:39:34;;;;;;;8.80;6.35;;;15.90;61.40;;;;;;5064914;28;20530;-22
2023/01/21 02:42:12;;;;;;;7.18;6.38;;;15.90;61.50;;;;;;5077460;28;20040;-18
2023/01/21 02:44:42;;;;;;;7.40;6.32;;;15.90;61.40;;;;;;5067552;28;20188;-39
2023/01/21 02:47:21;;;;;;;8.60;6.70;;;15.90;61.50;;;;;;5079799;28;20508;-21
2023/01/21 02:49:57;;;;;;;7.03;6.18;;;15.90;61.50;;;;;;5074545;28;20542;-31
2023/01/21 02:52:23;;;;;;;8.38;6.82;;;15.90;61.50;;;;;;5074865;28;20494;-41
2023/01/21 02:54:54;;;;;;;7.22;6.43;;;15.80;61.50;;;;;;5078378;28;20067;-37
2023/01/21 02:57:56;;;;;;;7.95;6.50;;;15.90;61.50;;;;;;5070273;28;20040;-25
2023/01/21 03:00:25;;;;;;;9.20;5.85;;;15.80;61.60;;;;;;5043406;28;20041;-34
2023/01/21 03:03:05;;;;;;;8.00;6.10;;;15.80;61.70;;;;;;5056518;28;20040;-43
2023/01/21 03:05:37;;;;;;;6.43;5.57;;;15.80;61.60;;;;;;5066499;28;20052;-25
2023/01/21 03:08:08;;;;;;;8.05;6.25;;;15.80;61.60;;;;;;5056493;28;20130;-37
2023/01/21 03:10:40;;;;;;;6.63;5.40;;;15.80;61.60;;;;;;5049324;28;20096;-30
2023/01/21 03:16:55;;;;;;;7.82;6.10;;;15.80;62.40;;;;;;5080114;28;20051;-23
2023/01/21 03:18:50;;;;;;;5.93;5.25;;;15.70;61.70;;;;;;5052650;28;20109;-41
2023/01/21 03:21:18;;;;;;;6.07;4.43;;;15.80;61.70;;;;;;5049628;28;20547;-28
2023/01/21 03:23:45;;;;;;;7.78;6.05;;;15.70;61.60;;;;;;5069616;28;20072;-26
2023/01/21 03:26:13;;;;;;;7.05;5.45;;;15.80;61.70;;;;;;5057152;28;20417;-33
2023/01/21 03:28:44;;;;;;;5.90;5.05;;;15.70;61.70;;;;;;5055903;28;20061;-15
2023/01/21 03:31:17;;;;;;;5.35;4.82;;;15.70;61.70;;;;;;5055792;28;20075;-18
2023/01/21 03:33:44;;;;;;;5.85;5.25;;;15.70;61.70;;;;;;5064010;28;20056;-19
2023/01/21 03:36:17;;;;;;;7.00;5.75;;;15.70;61.60;;;;;;5051219;28;20427;-19
2023/01/21 03:38:45;;;;;;;5.43;4.80;;;15.70;61.70;;;;;;5062755;28;20045;-27
2023/01/21 03:41:17;;;;;;;4.97;4.57;;;15.70;61.70;;;;;;5054982;28;20409;-42
2023/01/21 03:43:43;;;;;;;5.40;4.28;;;15.70;61.70;;;;;;5048829;28;20041;-37
2023/01/21 03:46:23;;;;;;;5.60;5.07;;;15.70;61.70;;;;;;5077136;28;20163;-36
2023/01/21 03:48:58;;;;;;;5.30;4.78;;;15.70;61.70;;;;;;5056208;28;20152;-25
2023/01/21 03:51:26;;;;;;;5.55;5.05;;;15.70;61.70;;;;;;5058295;28;20515;-17
2023/01/21 03:53:55;;;;;;;5.45;4.57;;;15.70;61.70;;;;;;5077768;28;20036;-24
2023/01/21 03:56:21;;;;;;;5.97;5.38;;;15.70;61.80;;;;;;5059489;28;20043;-26
2023/01/21 03:58:47;;;;;;;5.05;4.65;;;15.70;61.70;;;;;;5057539;28;22048;-23
2023/01/21 04:01:12;;;;;;;5.32;4.82;;;15.70;61.70;;;;;;5062335;28;20171;-18
2023/01/21 04:03:39;;;;;;;4.68;4.28;;;15.70;61.60;;;;;;5059692;28;20500;-39
2023/01/21 04:06:05;;;;;;;5.60;5.10;;;15.70;61.70;;;;;;5047135;28;20060;-20
2023/01/21 04:08:31;;;;;;;4.88;4.40;;;15.70;61.80;;;;;;5049897;28;20048;-39
2023/01/21 04:10:56;;;;;;;4.22;3.83;;;15.60;61.60;;;;;;5048518;28;20061;-29
2023/01/21 04:13:22;;;;;;;4.82;4.32;;;15.60;61.70;;;;;;5058107;28;20098;-36
2023/01/21 04:15:47;;;;;;;5.15;4.35;;;15.60;61.70;;;;;;5066348;28;20391;-39
2023/01/21 04:18:13;;;;;;;5.28;4.78;;;15.60;61.80;;;;;;5048285;28;20045;-22
2023/01/21 04:20:38;;;;;;;5.55;4.53;;;15.60;61.90;;;;;;5046361;28;20045;-19
2023/01/21 04:23:04;;;;;;;5.10;4.60;;;15.60;61.70;;;;;;5056884;28;20045;-30
2023/01/21 04:25:29;;;;;;;5.45;4.90;;;15.60;61.70;;;;;;5058998;28;20041;-34
2023/01/21 04:27:55;;;;;;;4.03;3.70;;;15.60;61.70;;;;;;5066933;28;20098;-38
2023/01/21 04:30:20;;;;;;;4.47;4.07;;;15.60;61.70;;;;;;5061044;28;20045;-26
2023/01/21 04:32:46;;;;;;;4.60;4.20;;;15.60;61.70;;;;;;5044297;28;20045;-34
2023/01/21 04:35:12;;;;;;;4.75;4.35;;;15.60;61.70;;;;;;5046593;28;20461;-28
2023/01/21 04:37:37;;;;;;;4.20;3.90;;;15.60;61.70;;;;;;5046196;28;20073;-21
2023/01/21 04:40:03;;;;;;;4.57;4.18;;;15.60;61.70;;;;;;5047618;28;20052;-17
2023/01/21 04:42:29;;;;;;;3.78;3.50;;;15.60;61.70;;;;;;5044131;28;20048;-40
2023/01/21 04:44:54;;;;;;;4.75;4.35;;;15.60;61.80;;;;;;5048139;28;20041;-21
2023/01/21 04:47:20;;;;;;;4.63;4.22;;;15.60;61.70;;;;;;5067683;28;20098;-26
2023/01/21 04:49:47;;;;;;;4.60;4.20;;;15.60;61.80;;;;;;5049505;28;20041;-25
2023/01/21 04:52:13;;;;;;;4.47;4.07;;;15.60;61.90;;;;;;5046151;28;20088;-31
2023/01/21 04:54:38;;;;;;;4.60;4.20;;;15.60;61.80;;;;;;5060753;28;20051;-26
2023/01/21 04:57:04;;;;;;;4.18;3.88;;;15.60;61.80;;;;;;5058190;28;20091;-13
2023/01/21 04:59:30;;;;;;;4.00;3.67;;;15.50;61.70;;;;;;5068064;28;20059;-16
2023/01/21 05:01:55;;;;;;;3.95;3.63;;;15.50;61.80;;;;;;5062089;28;20554;-21
2023/01/21 05:04:21;;;;;;;4.18;3.88;;;15.60;61.90;;;;;;5055925;28;20055;-27
2023/01/21 05:06:47;;;;;;;3.88;3.58;;;15.50;61.80;;;;;;5060774;28;20048;-26
2023/01/21 05:09:12;;;;;;;4.35;4.05;;;15.50;61.80;;;;;;5058231;28;20036;-23
2023/01/21 05:11:38;;;;;;;3.95;3.65;;;15.50;61.90;;;;;;5050831;28;20036;-25
2023/01/21 05:14:03;;;;;;;4.13;3.78;;;15.50;61.90;;;;;;5046303;28;20041;-28
2023/01/21 05:16:29;;;;;;;3.30;3.00;;;15.50;61.80;;;;;;5046638;28;20056;-13
2023/01/21 05:18:55;;;;;;;3.50;3.20;;;15.50;61.80;;;;;;5051279;28;20033;-23
2023/01/21 05:21:20;;;;;;;3.22;3.03;;;15.50;61.70;;;;;;5047283;28;20049;-19
2023/01/21 05:23:46;;;;;;;4.00;3.70;;;15.50;61.70;;;;;;5062537;28;20739;-14
2023/01/21 05:26:11;;;;;;;3.45;3.25;;;15.50;61.80;;;;;;5060248;28;21254;-27
2023/01/21 05:28:37;;;;;;;4.20;3.85;;;15.50;61.90;;;;;;5047439;28;20041;-13
2023/01/21 05:31:03;;;;;;;3.72;3.42;;;15.50;61.80;;;;;;5048999;28;20495;-12
2023/01/21 05:33:32;;;;;;;3.38;3.17;;;15.50;61.80;;;;;;5068765;28;20090;-25
2023/01/21 05:35:57;;;;;;;3.60;3.30;;;15.50;62.70;;;;;;5043384;28;20076;-16
2023/01/21 05:38:23;;;;;;;3.30;3.00;;;15.50;61.60;;;;;;5053468;28;20499;-22
2023/01/21 05:40:48;;;;;;;3.75;3.45;;;15.50;61.70;;;;;;5047467;28;20060;-12
2023/01/21 05:43:14;;;;;;;3.50;3.20;;;15.50;61.80;;;;;;5061137;28;20051;-13
2023/01/21 05:45:39;;;;;;;2.78;2.58;;;15.60;61.90;;;;;;5056658;28;20124;-31
2023/01/21 05:48:05;;;;;;;3.28;3.03;;;15.50;61.60;;;;;;5053950;28;20049;-26
2023/01/21 05:50:31;;;;;;;2.83;2.63;;;15.50;61.70;;;;;;5047429;28;20133;-23
2023/01/21 05:52:57;;;;;;;3.50;3.30;;;15.50;61.60;;;;;;5045447;28;20511;-30
2023/01/21 05:55:22;;;;;;;2.80;2.60;;;15.50;61.70;;;;;;5046467;28;20052;-35
2023/01/21 05:57:48;;;;;;;3.55;3.35;;;15.50;61.70;;;;;;5047191;28;20040;-15
2023/01/21 06:00:14;;;;;;;3.65;3.35;;;15.50;61.80;;;;;;5046806;28;20040;-13
2023/01/21 06:02:39;;;;;;;3.03;2.83;;;15.50;61.80;;;;;;5046513;28;20051;-16
2023/01/21 06:05:06;;;;;;;3.17;2.90;;;15.40;61.80;;;;;;5055294;28;20052;-13
2023/01/21 06:07:31;;;;;;;2.80;2.60;;;15.40;61.90;;;;;;5055889;28;20056;-14
2023/01/21 06:09:57;;;;;;;2.78;2.58;;;15.40;61.80;;;;;;5054913;28;20053;-21
2023/01/21 06:12:22;;;;;;;2.97;2.67;;;15.40;61.90;;;;;;5063458;28;21762;-12
2023/01/21 06:14:48;;;;;;;3.03;2.80;;;15.40;61.80;;;;;;5048967;28;20396;-18
2023/01/21 06:17:13;;;;;;;2.60;2.40;;;15.40;61.80;;;;;;5070357;28;20045;-12
2023/01/21 06:19:39;;;;;;;2.38;2.17;;;15.40;61.70;;;;;;5070757;28;20048;-24
2023/01/21 06:22:04;;;;;;;3.20;2.88;;;15.40;61.80;;;;;;5061808;28;20049;-24
2023/01/21 06:24:30;;;;;;;2.80;2.60;;;15.40;61.80;;;;;;5060350;28;20421;-12
2023/01/21 06:26:56;;;;;;;2.65;2.50;;;15.40;61.80;;;;;;5069789;28;20049;-24
2023/01/21 06:29:21;;;;;;;3.15;2.95;;;15.40;61.70;;;;;;5065435;28;20051;-17
2023/01/21 06:31:47;;;;;;;2.80;2.60;;;15.40;61.70;;;;;;5058389;28;20052;-21
2023/01/21 06:34:12;;;;;;;2.55;2.35;;;15.40;61.80;;;;;;5057376;28;20045;-21
2023/01/21 06:36:41;;;;;;;2.65;2.45;;;15.40;61.90;;;;;;5046951;28;20047;-26
2023/01/21 06:39:08;;;;;;;3.05;2.85;;;15.40;61.90;;;;;;5065021;28;20048;-14
2023/01/21 06:41:34;;;;;;;2.50;2.30;;;15.40;61.70;;;;;;5046620;28;20048;-31
2023/01/21 06:43:59;;;;;;;2.83;2.63;;;15.40;61.80;;;;;;5046670;28;20033;-30
2023/01/21 06:46:25;;;;;;;2.78;2.58;;;15.50;61.40;;;;;;5049171;28;20561;-18
2023/01/21 06:48:52;;;;;;;2.70;2.50;;;15.50;61.20;;;;;;5048933;28;20099;-12
2023/01/21 06:51:18;;;;;;;2.30;2.10;;;15.40;61.40;;;;;;5050013;28;20037;-11
2023/01/21 06:53:43;;;;;;;2.65;2.45;;;15.40;61.50;;;;;;5048644;28;20033;-33
2023/01/21 06:56:09;;;;;;;2.40;2.30;;;15.40;61.60;;;;;;5050868;28;20048;-13
2023/01/21 06:58:34;;;;;;;2.50;2.30;;;15.40;61.80;;;;;;5053820;28;20063;-26
2023/01/21 07:01:00;;;;;;;2.40;2.20;;;15.40;61.80;;;;;;5058557;28;20402;-22
2023/01/21 07:03:26;;;;;;;2.20;2.10;;;15.40;61.80;;;;;;5059516;28;20037;-34
2023/01/21 07:05:51;;;;;;;2.10;2.00;;;15.40;61.90;;;;;;5058722;28;20090;-13
2023/01/21 07:08:17;;;;;;;2.10;2.00;;;15.40;61.90;;;;;;5066930;28;20037;-17
2023/01/21 07:10:42;;;;;;;2.25;2.15;;;15.40;61.80;;;;;;5057528;28;20037;-20
2023/01/21 07:13:08;;;;;;;2.55;2.35;;;15.30;61.70;;;;;;5061335;28;20566;-13
2023/01/21 07:15:33;;;;;;;2.00;1.90;;;15.30;61.80;;;;;;5056589;28;20045;-14
2023/01/21 07:17:59;;;;;;;2.38;2.17;;;15.30;61.80;;;;;;5065058;28;20053;-20
2023/01/21 07:20:25;;;;;;;2.40;2.00;;;15.30;61.80;;;;;;5053022;28;20095;-27
2023/01/21 07:22:50;;;;;;;2.00;1.90;;;15.30;61.90;;;;;;5063880;28;20040;-28
2023/01/21 07:25:16;;;;;;;2.13;2.03;;;15.30;61.80;;;;;;5047931;28;20534;-23
2023/01/21 07:27:41;;;;;;;2.00;1.90;;;15.40;61.80;;;;;;5057186;28;20659;-12
2023/01/21 07:30:09;;;;;;;2.15;2.05;;;15.30;61.80;;;;;;5056306;28;20044;-27
2023/01/21 07:32:34;;;;;;;1.92;1.83;;;15.30;61.80;;;;;;5063320;28;20059;-27
2023/01/21 07:35:00;;;;;;;2.17;2.08;;;15.30;61.90;;;;;;5047400;28;20045;-28
2023/01/21 07:37:25;;;;;;;1.85;1.75;;;15.30;61.90;;;;;;5060066;28;20055;-16
2023/01/21 07:39:51;;;;;;;1.80;1.70;;;15.30;61.80;;;;;;5054520;28;20079;-31
2023/01/21 07:42:16;;;;;;;1.80;1.70;;;15.40;61.80;;;;;;5049125;28;20628;-18
2023/01/21 07:44:42;;;;;;;1.90;1.80;;;15.30;61.80;;;;;;5059043;28;20037;-13
2023/01/21 07:47:09;;;;;;;1.83;1.73;;;15.30;61.90;;;;;;5052809;28;20044;-18
2023/01/21 07:49:34;;;;;;;2.22;2.13;;;15.30;61.90;;;;;;5051687;28;20040;-22
2023/01/21 07:52:00;;;;;;;1.85;1.75;;;15.30;61.80;;;;;;5046767;28;20102;-23
2023/01/21 07:54:26;;;;;;;1.63;1.52;;;15.30;61.90;;;;;;5047029;28;20136;-23
2023/01/21 07:56:51;;;;;;;1.50;1.40;;;15.30;61.90;;;;;;5046062;28;20128;-20
2023/01/21 07:59:17;;;;;;;1.85;1.75;;;15.40;61.80;;;;;;5043582;28;20462;-18
2023/01/21 08:01:42;;;;;;;1.67;1.58;;;15.30;61.60;;;;;;5039544;28;20045;-30
2023/01/21 08:04:08;;;;;;;1.60;1.50;;;15.30;62.50;;;;;;5042941;28;20083;-38
2023/01/21 08:06:36;;;;;;;1.60;1.50;;;15.30;61.80;;;;;;5048540;28;20080;-17
2023/01/21 08:09:02;;;;;;;1.42;1.33;;;15.30;61.80;;;;;;5051061;28;20040;-18
2023/01/21 08:11:28;;;;;;;1.67;1.58;;;15.30;61.80;;;;;;5056804;28;20048;-16
2023/01/21 08:13:53;;;;;;;1.55;1.45;;;15.20;61.90;;;;;;5055079;28;20412;-20
2023/01/21 08:16:19;;;;;;;1.70;1.60;;;15.40;61.70;;;;;;5052199;28;20094;-22
2023/01/21 08:18:45;;;;;;;1.70;1.60;;;15.40;61.20;;;;;;5060414;28;20044;-18
2023/01/21 08:21:10;;;;;;;1.77;1.67;;;15.50;61.60;;;;;;5055577;28;20045;-24
2023/01/21 08:23:36;;;;;;;2.00;1.77;;;15.60;61.00;;;;;;5046211;28;20502;-25
2023/01/21 08:26:02;;;;;;;1.27;1.23;;;15.60;61.00;;;;;;5056212;28;20036;-26
2023/01/21 08:28:28;;;;;;;1.60;1.50;;;15.50;60.80;;;;;;5060508;28;20124;-29
2023/01/21 08:30:53;;;;;;;1.65;1.50;;;15.50;61.20;;;;;;5048809;28;20129;-15
2023/01/21 08:33:19;;;;;;;2.08;1.88;;;15.50;61.30;;;;;;5046904;28;20051;-17
2023/01/21 08:35:44;;;;;;;2.03;1.58;;;15.50;61.00;;;;;;5054079;28;20121;-19
2023/01/21 08:38:10;;;;;;;1.92;1.60;;;15.60;60.60;;;;;;5048828;28;20412;-17
2023/01/21 08:40:35;;;;;;;1.70;1.60;;;15.70;60.70;;;;;;5046848;28;20069;-22
2023/01/21 08:43:02;;;;;;;1.55;1.40;;;15.50;61.40;;;;;;5042289;28;20028;-19
2023/01/21 08:45:28;;;;;;;6.50;1.65;;;15.50;61.10;;;;;;5040341;28;20040;-17
2023/01/21 08:47:53;;;;;;;1.48;1.38;;;15.50;61.10;;;;;;5056604;28;20037;-15
2023/01/21 08:50:19;;;;;;;2.08;1.17;;;15.40;61.40;;;;;;5068326;28;20052;-17
2023/01/21 08:52:52;;;;;;;1.67;1.58;;;15.40;61.40;;;;;;5049207;28;20426;-21
2023/01/21 08:55:18;;;;;;;1.58;1.25;;;15.40;61.50;;;;;;5044830;28;20053;-18
2023/01/21 08:57:43;;;;;;;1.95;1.30;;;15.50;61.30;;;;;;5053386;28;20588;-18
2023/01/21 09:00:09;;;;;;;2.45;1.40;;;15.50;61.10;;;;;;5057507;28;20119;-16
2023/01/21 09:02:35;;;;;;;1.75;1.50;;;15.40;61.20;;;;;;5048479;28;20057;-17
2023/01/21 09:05:01;;;;;;;4.05;1.38;;;15.40;61.30;;;;;;5043756;28;20395;-17
2023/01/21 09:07:26;;;;;;;4.28;1.60;;;15.70;60.90;;;;;;5058815;28;20052;-27
2023/01/21 09:09:52;;;;;;;2.85;1.55;;;15.60;60.80;;;;;;5067239;28;20055;-28
2023/01/21 09:12:17;;;;;;;1.33;1.23;;;15.60;60.90;;;;;;5065420;28;20056;-28
2023/01/21 09:14:43;;;;;;;1.42;1.08;;;15.50;61.20;;;;;;5052472;28;20076;-23
2023/01/21 09:17:09;;;;;;;1.55;1.20;;;15.50;61.30;;;;;;5065570;28;20384;-17
2023/01/21 09:19:35;;;;;;;1.23;1.13;;;15.50;61.40;;;;;;5064211;28;20056;-21
2023/01/21 09:22:00;;;;;;;2.15;0.93;;;15.50;61.30;;;;;;5066618;28;20494;-21
2023/01/21 09:24:26;;;;;;;1.50;1.40;;;15.50;61.30;;;;;;5067369;28;20056;-17
2023/01/21 09:26:52;;;;;;;1.35;1.23;;;15.50;61.20;;;;;;5065557;28;20154;-18
2023/01/21 09:29:17;;;;;;;2.25;1.20;;;15.60;61.20;;;;;;5058399;28;20064;-20
2023/01/21 09:31:43;;;;;;;1.38;1.23;;;15.60;60.90;;;;;;5048633;28;20122;-18
2023/01/21 09:34:09;;;;;;;2.58;1.20;;;15.50;61.00;;;;;;5062832;28;20453;-17
2023/01/21 09:36:35;;;;;;;2.92;1.25;;;15.60;61.00;;;;;;5048159;28;20389;-17
2023/01/21 09:39:01;;;;;;;1.50;1.40;;;15.70;60.80;;;;;;5047563;28;20025;-17
2023/01/21 09:41:29;;;;;;;1.52;1.42;;;15.80;60.20;;;;;;5048578;28;20455;-20
2023/01/21 09:44:27;;;;;;;1.48;1.35;;;15.80;60.10;;;;;;5046845;28;20021;-20
2023/01/21 09:47:14;;;;;;;1.70;1.58;;;15.90;60.00;;;;;;5046212;28;20434;-18
2023/01/21 09:49:51;;;;;;;1.42;1.30;;;15.90;60.00;;;;;;5047271;28;20032;-16
2023/01/21 09:52:26;;;;;;;1.67;1.30;;;15.80;60.40;;;;;;5062206;28;20041;-17
2023/01/21 09:54:52;;;;;;;1.20;1.10;;;15.90;60.30;;;;;;5047229;28;20025;-17
2023/01/21 09:57:36;;;;;;;1.30;1.20;;;16.00;60.10;;;;;;5048068;28;20534;-17
2023/01/21 10:00:24;;;;;;;1.30;1.20;;;16.00;60.20;;;;;;5047011;28;20514;-17
2023/01/21 10:03:12;;;;;;;1.35;1.25;;;16.00;60.10;;;;;;5049001;28;20032;-17
2023/01/21 10:05:44;;;;;;;3.20;1.40;;;16.10;60.00;;;;;;5061909;28;20573;-17
2023/01/21 10:08:22;;;;;;;1.05;0.98;;;16.00;60.00;;;;;;5047805;28;20029;-17
2023/01/21 10:10:55;;;;;;;1.13;1.10;;;16.10;59.90;;;;;;5038810;28;20496;-17
2023/01/21 10:13:57;;;;;;;1.42;1.20;;;16.20;59.70;;;;;;5044074;28;20033;-16
2023/01/21 10:16:41;;;;;;;1.40;1.30;;;16.20;59.70;;;;;;5049299;28;22065;-18
2023/01/21 10:19:09;;;;;;;2.00;1.48;;;16.30;59.40;;;;;;5045742;28;20043;-17
2023/01/21 10:21:37;;;;;;;1.10;1.10;;;16.40;59.20;;;;;;5043106;28;20044;-17
2023/01/21 10:24:17;;;;;;;1.63;1.30;;;16.40;59.10;;;;;;5062954;28;20047;-17
2023/01/21 10:26:43;;;;;;;1.17;1.10;;;16.40;59.20;;;;;;5055364;28;20040;-18
2023/01/21 10:29:15;;;;;;;1.42;1.20;;;16.40;59.10;;;;;;5043699;28;20034;-20
2023/01/21 10:31:41;;;;;;;1.10;1.00;;;16.40;59.20;;;;;;5049635;28;20086;-17
2023/01/21 10:34:13;;;;;;;1.30;0.90;;;16.30;59.30;;;;;;5063633;28;20127;-16
2023/01/21 10:37:09;;;;;;;1.13;1.02;;;16.30;59.40;;;;;;5055479;28;20056;-19
2023/01/21 10:40:04;;;;;;;1.08;0.80;;;16.30;59.40;;;;;;5044504;28;20330;-17
2023/01/21 10:42:30;;;;;;;;;;;16.30;59.50;;;;;;5062358;28;20560;-25
2023/01/21 10:45:24;;;;;;;1.10;1.05;;;16.20;59.60;;;;;;5066623;28;19912;-21
2023/01/21 10:47:53;;;;;;;0.80;0.80;;;16.30;59.70;;;;;;5062076;28;20136;-17
2023/01/21 10:50:37;;;;;;;1.00;1.00;;;16.20;59.70;;;;;;5073835;28;20525;-17
2023/01/21 10:53:30;;;;;;;1.05;1.05;;;16.20;59.80;;;;;;5065131;28;20051;-16
2023/01/21 10:56:18;;;;;;;1.30;1.20;;;16.30;59.70;;;;;;5068788;28;20306;-17
2023/01/21 10:58:56;;;;;;;2.05;1.17;;;16.30;59.70;;;;;;5068731;28;20124;-22
2023/01/21 11:01:29;;;;;;;1.10;1.00;;;16.20;59.70;;;;;;5063976;28;20106;-17
2023/01/21 11:04:14;;;;;;;0.70;0.70;;;16.40;59.60;;;;;;5061610;28;20044;-17
2023/01/21 11:06:40;;;;;;;1.02;0.98;;;16.30;59.60;;;;;;5068234;28;20059;-21
2023/01/21 11:09:06;;;;;;;0.90;0.90;;;16.30;59.50;;;;;;5067796;28;20037;-29
2023/01/21 11:11:34;;;;;;;0.80;0.80;;;16.30;59.40;;;;;;5056294;28;20150;-24
2023/01/21 11:13:59;;;;;;;0.80;0.80;;;16.40;59.30;;;;;;5054733;28;20066;-26
2023/01/21 11:16:38;;;;;;;0.70;0.70;;;16.40;59.10;;;;;;5060638;28;20133;-17
2023/01/21 11:19:05;;;;;;;1.40;1.00;;;16.40;59.40;;;;;;5063034;28;20043;-25
2023/01/21 11:21:31;;;;;;;1.13;1.00;;;16.40;59.10;;;;;;5068462;28;20087;-17
2023/01/21 11:24:00;;;;;;;0.90;0.90;;;16.50;59.00;;;;;;5053373;28;20080;-16
2023/01/21 11:26:27;;;;;;;0.95;0.95;;;16.50;59.30;;;;;;5048627;28;20424;-17
2023/01/21 11:29:12;;;;;;;0.98;0.98;;;16.50;59.10;;;;;;5050126;28;20049;-17
2023/01/21 11:31:42;;;;;;;0.80;0.80;;;16.40;59.00;;;;;;5045129;28;20076;-17
2023/01/21 11:34:16;;;;;;;0.70;0.70;;;16.50;59.10;;;;;;5053711;28;20506;-18
2023/01/21 11:37:00;;;;;;;0.77;0.77;;;16.50;58.90;;;;;;5045964;28;20605;-26
2023/01/21 11:39:27;;;;;;;0.70;0.70;;;16.50;59.00;;;;;;5052373;28;20387;-20
2023/01/21 11:41:57;;;;;;;0.80;0.80;;;16.40;59.00;;;;;;5061990;28;20145;-17
2023/01/21 11:44:23;;;;;;;1.30;0.80;;;16.50;59.10;;;;;;5051861;28;20049;-18
2023/01/21 11:46:49;;;;;;;0.80;0.80;;;16.50;59.10;;;;;;5043297;28;20068;-17
2023/01/21 11:49:14;;;;;;;0.80;0.80;;;16.50;59.20;;;;;;5043336;28;20186;-23
2023/01/21 11:51:41;;;;;;;1.10;1.00;;;16.50;59.20;;;;;;5059074;28;20119;-22
2023/01/21 11:54:19;;;;;;;0.95;0.95;;;16.40;59.30;;;;;;5047421;28;20539;-30
2023/01/21 11:56:56;;;;;;;0.75;0.75;;;16.40;59.20;;;;;;5045096;28;20102;-17
2023/01/21 11:59:32;;;;;;;0.80;0.80;;;16.50;59.30;;;;;;5044757;28;20499;-24
2023/01/21 12:02:15;;;;;;;0.60;0.60;;;16.50;59.30;;;;;;5052685;28;20040;-17
2023/01/21 12:04:52;;;;;;;0.80;0.80;;;16.50;59.30;;;;;;5049032;28;20114;-17
2023/01/21 12:07:24;;;;;;;0.88;0.60;;;16.40;59.20;;;;;;5078440;28;20521;-17
2023/01/21 12:09:53;;;;;;;0.60;0.60;;;16.40;59.30;;;;;;5069654;28;20538;-17
2023/01/21 12:12:34;;;;;;;0.60;0.60;;;16.40;59.30;;;;;;5064923;28;20033;-20
2023/01/21 12:15:28;;;;;;;0.70;0.60;;;16.50;59.40;;;;;;5075991;28;20084;-17
2023/01/21 12:18:23;;;;;;;0.50;0.50;;;16.40;59.30;;;;;;5070017;28;20037;-24
2023/01/21 12:20:58;;;;;;;0.77;0.77;;;16.40;59.30;;;;;;5066135;28;20054;-18
2023/01/21 12:23:35;;;;;;;0.50;0.50;;;16.40;59.50;;;;;;5064307;28;20036;-18
2023/01/21 12:26:19;;;;;;;0.65;0.65;;;16.40;59.30;;;;;;5066615;28;20050;-18
2023/01/21 12:29:13;;;;;;;0.60;0.60;;;16.40;59.40;;;;;;5066915;28;20044;-17
2023/01/21 12:31:42;;;;;;;0.47;0.40;;;16.40;59.30;;;;;;5065304;28;20275;-21
2023/01/21 12:34:43;;;;;;;0.57;0.57;;;16.40;59.30;;;;;;5065496;28;20045;-21
2023/01/21 12:37:13;;;;;;;0.68;0.68;;;16.40;59.30;;;;;;5061455;28;20033;-20
2023/01/21 12:39:39;;;;;;;0.60;0.60;;;16.40;59.30;;;;;;5068556;28;20044;-18
2023/01/21 12:42:14;;;;;;;0.68;0.52;;;16.40;59.30;;;;;;5069598;28;20048;-32
2023/01/21 12:44:50;;;;;;;0.60;0.50;;;16.50;59.80;;;;;;5065411;28;20040;-21
2023/01/21 12:47:35;;;;;;;1.95;0.73;;;16.60;59.10;;;;;;5070059;28;20629;-27
2023/01/21 12:50:20;;;;;;;0.73;0.70;;;16.50;59.10;;;;;;5074349;28;20036;-24
2023/01/21 12:53:04;;;;;;;0.52;0.52;;;16.50;59.10;;;;;;5056802;28;20036;-17
2023/01/21 12:55:33;;;;;;;0.60;0.60;;;16.50;59.10;;;;;;5059802;28;20068;-18
2023/01/21 12:58:17;;;;;;;0.55;0.55;;;16.50;59.10;;;;;;5038562;28;20049;-17
2023/01/21 13:00:45;;;;;;;0.68;0.68;;;16.50;59.00;;;;;;5035955;28;20480;-17